createdAt,value
2023-01-02T00:00:27.088Z,30.20
2023-01-02T00:03:30.285Z,30.48
2023-01-02T00:06:39.686Z,28.95
2023-01-02T00:09:41.725Z,30.35
2023-01-02T00:12:43.861Z,28.67
2023-01-02T00:15:47.022Z,30.27
2023-01-02T00:18:49.218Z,27.98
2023-01-02T00:21:51.638Z,29.90
2023-01-02T00:24:54.639Z,26.77
2023-01-02T00:27:57.631Z,29.80
2023-01-02T00:31:09.788Z,27.50
2023-01-02T00:34:11.791Z,25.77
2023-01-02T00:37:13.843Z,29.13
2023-01-02T00:40:16.899Z,27.85
2023-01-02T00:43:19.912Z,27.88
2023-01-02T00:46:22.372Z,28.73
2023-01-02T00:49:26.243Z,27.10
2023-01-02T00:52:28.944Z,27.02
2023-01-02T00:55:31.608Z,25.83
2023-01-02T00:58:33.674Z,26.88
2023-01-02T01:01:36.043Z,25.75
2023-01-02T01:04:38.321Z,25.77
2023-01-02T01:08:05.415Z,27.20
2023-01-02T01:11:09.079Z,25.05
2023-01-02T01:14:11.261Z,24.77
2023-01-02T01:17:13.479Z,25.20
2023-01-02T01:20:15.632Z,25.17
2023-01-02T01:23:17.683Z,26.45
2023-01-02T01:26:20.732Z,24.35
2023-01-02T01:29:22.974Z,25.90
2023-01-02T01:32:25.102Z,24.90
2023-01-02T01:35:29.391Z,23.38
2023-01-02T01:38:32.893Z,23.90
2023-01-02T01:41:36.175Z,23.05
2023-01-02T01:44:49.801Z,26.00
2023-01-02T01:47:55.507Z,25.67
2023-01-02T01:50:58.586Z,24.17
2023-01-02T01:54:16.179Z,25.17
2023-01-02T01:57:27.322Z,25.58
2023-01-02T02:00:31.482Z,25.58
2023-01-02T02:03:37.194Z,24.13
2023-01-02T02:06:41.006Z,25.88
2023-01-02T02:09:59.784Z,26.65
2023-01-02T02:13:03.979Z,25.52
2023-01-02T02:16:17.896Z,26.20
2023-01-02T02:19:40.191Z,25.65
2023-01-02T02:23:06.890Z,22.08
2023-01-02T02:26:40.635Z,25.92
2023-01-02T02:29:42.696Z,23.98
2023-01-02T02:33:07.203Z,24.40
2023-01-02T02:36:22.053Z,21.75
2023-01-02T02:39:36.015Z,21.35
2023-01-02T02:42:57.025Z,24.15
2023-01-02T02:46:17.648Z,22.48
2023-01-02T02:49:38.195Z,23.48
2023-01-02T02:52:57.236Z,23.75
2023-01-02T02:56:03.817Z,23.52
2023-01-02T02:59:06.199Z,24.42
2023-01-02T03:02:08.801Z,22.98
2023-01-02T03:05:16.614Z,23.13
2023-01-02T03:08:33.256Z,22.77
2023-01-02T03:11:47.496Z,22.40
2023-01-02T03:15:06.526Z,23.35
2023-01-02T03:18:10.399Z,22.75
2023-01-02T03:21:45.079Z,23.10
2023-01-02T03:24:51.111Z,25.90
2023-01-02T03:28:01.447Z,23.10
2023-01-02T03:31:05.965Z,23.88
2023-01-02T03:34:18.039Z,23.33
2023-01-02T03:37:33.553Z,23.67
2023-01-02T03:40:44.323Z,24.27
2023-01-02T03:43:56.377Z,23.60
2023-01-02T03:47:37.825Z,23.75
2023-01-02T03:50:50.349Z,23.27
2023-01-02T03:53:54.030Z,22.88
2023-01-02T03:57:01.540Z,24.35
2023-01-02T04:00:10.771Z,25.15
2023-01-02T04:03:25.587Z,24.60
2023-01-02T04:06:34.951Z,24.58
2023-01-02T04:09:40.123Z,24.20
2023-01-02T04:12:47.471Z,23.65
2023-01-02T04:15:52.168Z,24.67
2023-01-02T04:19:01.121Z,22.73
2023-01-02T04:22:10.079Z,23.10
2023-01-02T04:28:25.392Z,23.88
2023-01-02T04:31:43.761Z,24.35
2023-01-02T04:34:46.530Z,22.75
2023-01-02T04:37:48.985Z,23.95
2023-01-02T04:40:51.812Z,22.77
2023-01-02T04:43:57.318Z,21.02
2023-01-02T04:46:59.516Z,23.80
2023-01-02T04:50:01.533Z,22.70
2023-01-02T04:53:04.105Z,23.60
2023-01-02T04:56:06.681Z,23.00
2023-01-02T04:59:10.684Z,23.83
2023-01-02T05:02:12.859Z,23.55
2023-01-02T05:05:15.115Z,23.60
2023-01-02T05:08:18.503Z,25.08
2023-01-02T05:11:21.691Z,25.30
2023-01-02T05:14:23.761Z,24.98
2023-01-02T05:17:25.949Z,26.20
2023-01-02T05:20:29.578Z,25.83
2023-01-02T05:23:50.603Z,22.52
2023-01-02T05:26:54.459Z,25.15
2023-01-02T05:29:57.664Z,24.38
2023-01-02T05:32:59.708Z,26.73
2023-01-02T05:36:04.165Z,24.73
2023-01-02T05:39:12.275Z,25.70
2023-01-02T05:42:14.423Z,23.52
2023-01-02T05:45:16.544Z,24.02
2023-01-02T05:48:18.692Z,25.55
2023-01-02T05:51:20.748Z,23.63
2023-01-02T05:54:23.028Z,15.93
2023-01-02T05:57:25.165Z,14.88
2023-01-02T06:00:27.132Z,14.05
2023-01-02T06:03:29.219Z,11.95
2023-01-02T06:06:36.003Z,12.18
2023-01-02T06:09:37.978Z,11.93
2023-01-02T06:12:39.987Z,15.15
2023-01-02T06:15:42.011Z,21.10
2023-01-02T06:18:44.997Z,23.60
2023-01-02T06:21:47.091Z,20.85
2023-01-02T06:24:49.130Z,20.20
2023-01-02T06:27:51.068Z,20.15
2023-01-02T06:30:53.038Z,19.38
2023-01-02T06:34:00.107Z,16.92
2023-01-02T06:37:09.227Z,16.50
2023-01-02T06:40:12.493Z,20.67
2023-01-02T06:43:15.116Z,19.30
2023-01-02T06:46:20.106Z,18.63
2023-01-02T06:49:22.062Z,18.02
2023-01-02T06:52:24.125Z,18.15
2023-01-02T06:55:26.372Z,19.23
2023-01-02T06:58:33.739Z,17.65
2023-01-02T07:01:35.856Z,18.52
2023-01-02T07:04:38.214Z,18.08
2023-01-02T07:07:40.577Z,17.80
2023-01-02T07:10:43.778Z,19.55
2023-01-02T07:13:50.946Z,19.17
2023-01-02T07:16:53.117Z,19.83
2023-01-02T07:20:01.667Z,19.02
2023-01-02T07:23:04.257Z,51.50
2023-01-02T07:26:07.693Z,19.92
2023-01-02T07:29:09.973Z,22.17
2023-01-02T07:32:12.066Z,22.30
2023-01-02T07:35:15.825Z,26.42
2023-01-02T07:38:17.858Z,24.10
2023-01-02T07:41:23.636Z,25.15
2023-01-02T07:44:25.715Z,21.00
2023-01-02T07:47:27.747Z,26.92
2023-01-02T07:50:30.035Z,26.70
2023-01-02T07:53:32.618Z,25.73
2023-01-02T07:56:34.655Z,25.58
2023-01-02T07:59:37.142Z,24.70
2023-01-02T08:02:39.357Z,25.67
2023-01-02T08:05:41.552Z,25.00
2023-01-02T08:08:44.190Z,25.17
2023-01-02T08:11:46.300Z,25.42
2023-01-02T08:14:48.436Z,24.27
2023-01-02T08:17:50.533Z,22.45
2023-01-02T08:20:52.617Z,23.38
2023-01-02T08:23:56.134Z,24.80
2023-01-02T08:26:58.213Z,23.42
2023-01-02T08:30:00.317Z,22.08
2023-01-02T08:33:02.584Z,23.58
2023-01-02T08:36:05.961Z,23.88
2023-01-02T08:39:08.038Z,23.52
2023-01-02T08:42:10.152Z,24.45
2023-01-02T08:45:12.228Z,23.80
2023-01-02T08:48:20.675Z,23.02
2023-01-02T08:51:28.628Z,20.17
2023-01-02T08:54:31.725Z,20.00
2023-01-02T08:57:36.608Z,19.88
2023-01-02T09:00:38.762Z,21.58
2023-01-02T09:03:41.032Z,19.95
2023-01-02T09:06:44.036Z,21.95
2023-01-02T09:09:46.443Z,22.90
2023-01-02T09:12:48.607Z,21.00
2023-01-02T09:15:50.733Z,21.25
2023-01-02T09:18:55.549Z,23.23
2023-01-02T09:21:57.786Z,21.90
2023-01-02T09:24:59.980Z,22.17
2023-01-02T09:28:02.148Z,22.67
2023-01-02T09:31:11.832Z,22.17
2023-01-02T09:34:15.281Z,23.85
2023-01-02T09:37:18.085Z,22.33
2023-01-02T09:40:20.548Z,24.80
2023-01-02T09:43:33.321Z,18.27
2023-01-02T09:46:51.308Z,22.48
2023-01-02T09:49:56.412Z,22.73
2023-01-02T09:53:02.079Z,23.27
2023-01-02T09:56:07.237Z,24.73
2023-01-02T09:59:36.879Z,23.25
2023-01-02T10:02:43.179Z,71.65
2023-01-02T10:06:07.928Z,22.00
2023-01-02T10:09:17.451Z,21.35
2023-01-02T10:12:35.115Z,21.38
2023-01-02T10:15:39.893Z,14.35
2023-01-02T10:18:45.528Z,21.75
2023-01-02T10:21:51.231Z,24.10
2023-01-02T10:24:55.974Z,22.73
2023-01-02T10:28:03.767Z,23.23
2023-01-02T10:31:12.391Z,22.85
2023-01-02T10:34:20.359Z,41.08
2023-01-02T10:37:22.470Z,22.85
2023-01-02T10:40:25.554Z,21.98
2023-01-02T10:43:29.535Z,22.20
2023-01-02T10:46:36.551Z,23.00
2023-01-02T10:49:40.532Z,21.27
2023-01-02T10:53:07.065Z,24.45
2023-01-02T10:56:20.738Z,22.45
2023-01-02T10:59:27.771Z,21.67
2023-01-02T11:02:37.393Z,24.30
2023-01-02T11:05:55.314Z,22.63
2023-01-02T11:09:15.556Z,23.75
2023-01-02T11:12:20.272Z,24.73
2023-01-02T11:15:33.436Z,24.40
2023-01-02T11:18:37.487Z,25.42
2023-01-02T11:21:41.869Z,21.85
2023-01-02T11:25:06.261Z,22.77
2023-01-02T11:28:17.866Z,26.13
2023-01-02T11:31:22.977Z,23.65
2023-01-02T11:34:37.575Z,25.48
2023-01-02T11:37:51.948Z,23.05
2023-01-02T11:40:57.687Z,23.13
2023-01-02T11:44:01.475Z,22.95
2023-01-02T11:47:07.752Z,22.48
2023-01-02T11:50:26.775Z,20.42
2023-01-02T11:53:37.168Z,22.33
2023-01-02T11:56:43.184Z,21.13
2023-01-02T11:59:50.519Z,20.02
2023-01-02T12:02:54.332Z,19.33
2023-01-02T12:06:17.372Z,19.38
2023-01-02T12:09:58.123Z,17.88
2023-01-02T12:13:33.914Z,19.08
2023-01-02T12:16:48.603Z,22.05
2023-01-02T12:20:05.209Z,18.70
2023-01-02T12:23:30.996Z,22.42
2023-01-02T12:26:46.421Z,21.30
2023-01-02T12:29:48.951Z,22.40
2023-01-02T12:33:14.021Z,22.08
2023-01-02T12:36:42.576Z,22.27
2023-01-02T12:40:04.470Z,20.73
2023-01-02T12:43:25.013Z,22.60
2023-01-02T12:46:47.320Z,21.33
2023-01-02T12:50:08.235Z,21.35
2023-01-02T12:53:32.631Z,20.27
2023-01-02T12:56:51.436Z,19.98
2023-01-02T13:00:11.861Z,20.20
2023-01-02T13:03:29.696Z,20.00
2023-01-02T13:06:46.047Z,20.15
2023-01-02T13:09:51.232Z,20.67
2023-01-02T13:12:56.394Z,20.48
2023-01-02T13:16:11.303Z,19.38
2023-01-02T13:19:48.471Z,20.13
2023-01-02T13:23:12.380Z,15.50
2023-01-02T13:26:16.672Z,15.10
2023-01-02T13:29:20.703Z,15.18
2023-01-02T13:32:30.178Z,13.63
2023-01-02T13:35:38.036Z,14.70
2023-01-02T13:38:41.895Z,15.80
2023-01-02T13:42:14.235Z,16.05
2023-01-02T13:45:18.819Z,14.55
2023-01-02T13:48:40.925Z,16.10
2023-01-02T13:51:42.992Z,15.27
2023-01-02T13:55:10.899Z,15.43
2023-01-02T13:58:17.789Z,15.63
2023-01-02T14:01:25.930Z,15.40
2023-01-02T14:04:35.707Z,13.50
2023-01-02T14:07:43.435Z,22.80
2023-01-02T14:10:46.067Z,22.70
2023-01-02T14:13:52.313Z,21.65
2023-01-02T14:17:23.579Z,20.90
2023-01-02T14:20:30.307Z,21.40
2023-01-02T14:23:42.316Z,20.08
2023-01-02T14:27:17.578Z,22.77
2023-01-02T14:30:52.860Z,21.95
2023-01-02T14:33:56.217Z,22.63
2023-01-02T14:37:00.562Z,20.50
2023-01-02T14:40:20.575Z,22.60
2023-01-02T14:43:32.637Z,21.08
2023-01-02T14:46:35.372Z,19.92
2023-01-02T14:49:38.036Z,22.77
2023-01-02T14:52:44.335Z,21.08
2023-01-02T14:55:48.530Z,22.50
2023-01-02T14:58:52.801Z,20.70
2023-01-02T15:02:01.516Z,21.70
2023-01-02T15:05:10.027Z,22.40
2023-01-02T15:08:15.250Z,21.67
2023-01-02T15:11:42.541Z,20.17
2023-01-02T15:14:45.049Z,22.42
2023-01-02T15:17:49.408Z,21.52
2023-01-02T15:20:54.368Z,23.00
2023-01-02T15:23:59.352Z,21.73
2023-01-02T15:27:32.293Z,22.77
2023-01-02T15:30:40.342Z,22.60
2023-01-02T15:33:42.439Z,22.67
2023-01-02T15:36:45.243Z,24.08
2023-01-02T15:39:50.386Z,24.17
2023-01-02T15:43:14.300Z,23.08
2023-01-02T15:46:18.214Z,24.88
2023-01-02T15:49:22.758Z,14.20
2023-01-02T15:52:30.160Z,23.30
2023-01-02T15:55:38.252Z,24.25
2023-01-02T15:58:49.687Z,24.05
2023-01-02T16:01:56.955Z,23.15
2023-01-02T16:05:15.570Z,24.67
2023-01-02T16:08:24.011Z,24.88
2023-01-02T16:14:36.579Z,25.63
2023-01-02T16:17:40.213Z,24.38
2023-01-02T16:20:42.339Z,25.15
2023-01-02T16:23:52.157Z,27.52
2023-01-02T16:26:54.415Z,25.48
2023-01-02T16:29:57.080Z,25.27
2023-01-02T16:33:03.712Z,27.98
2023-01-02T16:36:10.538Z,29.15
2023-01-02T16:39:47.609Z,25.60
2023-01-02T16:43:03.248Z,28.13
2023-01-02T16:46:11.581Z,28.30
2023-01-02T16:52:23.051Z,32.30
2023-01-02T16:55:25.151Z,33.55
2023-01-02T16:58:30.935Z,28.48
2023-01-02T17:01:34.053Z,25.08
2023-01-02T17:04:37.748Z,32.90
2023-01-02T17:07:39.821Z,35.13
2023-01-02T17:10:42.617Z,32.92
2023-01-02T17:13:46.842Z,36.00
2023-01-02T17:16:49.923Z,33.92
2023-01-02T17:19:51.919Z,34.35
2023-01-02T17:22:54.269Z,34.17
2023-01-02T17:25:56.452Z,32.65
2023-01-02T17:29:00.751Z,35.35
2023-01-02T17:32:05.581Z,33.75
2023-01-02T17:35:09.147Z,33.42
2023-01-02T17:38:11.568Z,35.92
2023-01-02T17:41:15.785Z,34.50
2023-01-02T17:44:19.387Z,34.83
2023-01-02T17:47:58.393Z,34.10
2023-01-02T17:50:44.393Z,36.25
2023-01-02T17:53:48.005Z,35.33
2023-01-02T17:56:51.625Z,36.50
2023-01-02T17:59:54.223Z,35.05
2023-01-02T18:02:56.369Z,35.15
2023-01-02T18:06:06.155Z,35.10
2023-01-02T18:09:10.185Z,36.40
2023-01-02T18:12:13.068Z,35.53
2023-01-02T18:15:16.690Z,38.25
2023-01-02T18:18:19.695Z,36.22
2023-01-02T18:21:24.354Z,40.05
2023-01-02T18:24:31.767Z,37.20
2023-01-02T18:27:35.132Z,39.80
2023-01-02T18:30:37.354Z,42.65
2023-01-02T18:33:39.459Z,44.08
2023-01-02T18:36:42.028Z,40.20
2023-01-02T18:39:44.136Z,41.97
2023-01-02T18:42:55.213Z,38.53
2023-01-02T18:46:09.653Z,39.05
2023-01-02T18:49:27.104Z,34.47
2023-01-02T18:52:33.674Z,33.47
2023-01-02T18:55:40.289Z,33.42
2023-01-02T18:59:02.633Z,35.13
2023-01-02T19:02:27.437Z,36.28
2023-01-02T19:05:36.638Z,41.40
2023-01-02T19:08:39.882Z,40.17
2023-01-02T19:12:02.239Z,40.00
2023-01-02T19:15:43.453Z,39.53
2023-01-02T19:18:53.003Z,39.13
2023-01-02T19:21:56.312Z,35.85
2023-01-02T19:25:34.326Z,38.17
2023-01-02T19:28:37.340Z,37.00
2023-01-02T19:32:03.447Z,38.08
2023-01-02T19:35:08.351Z,40.33
2023-01-02T19:38:30.243Z,42.75
2023-01-02T19:41:51.994Z,40.70
2023-01-02T19:44:59.315Z,39.03
2023-01-02T19:48:02.880Z,39.80
2023-01-02T19:51:06.512Z,38.92
2023-01-02T19:54:08.533Z,42.05
2023-01-02T19:57:12.925Z,42.20
2023-01-02T20:00:17.197Z,42.85
2023-01-02T20:03:21.816Z,42.85
2023-01-02T20:06:24.185Z,45.38
2023-01-02T20:09:27.217Z,45.13
2023-01-02T20:12:40.577Z,43.65
2023-01-02T20:15:42.667Z,44.38
2023-01-02T20:18:44.713Z,44.03
2023-01-02T20:21:46.741Z,44.88
2023-01-02T20:24:49.261Z,45.50
2023-01-02T20:27:54.130Z,44.53
2023-01-02T20:30:56.380Z,41.35
2023-01-02T20:34:00.455Z,44.45
2023-01-02T20:37:02.802Z,45.20
2023-01-02T20:40:10.857Z,50.22
2023-01-02T20:43:13.042Z,46.25
2023-01-02T20:46:15.857Z,45.13
2023-01-02T20:49:19.442Z,45.53
2023-01-02T20:52:23.030Z,42.92
2023-01-02T20:55:25.222Z,45.00
2023-01-02T20:58:28.729Z,45.42
2023-01-02T21:01:31.032Z,47.05
2023-01-02T21:04:36.831Z,44.85
2023-01-02T21:07:39.224Z,46.85
2023-01-02T21:10:42.873Z,48.45
2023-01-02T21:13:45.317Z,50.28
2023-01-02T21:16:47.576Z,48.45
2023-01-02T21:19:49.697Z,47.78
2023-01-02T21:22:51.770Z,47.15
2023-01-02T21:25:55.249Z,50.63
2023-01-02T21:28:57.524Z,47.97
2023-01-02T21:31:59.540Z,46.60
2023-01-02T21:35:01.956Z,47.45
2023-01-02T21:38:05.463Z,46.13
2023-01-02T21:41:28.496Z,46.67
2023-01-02T21:44:33.307Z,47.80
2023-01-02T21:47:37.890Z,48.13
2023-01-02T21:50:40.229Z,45.53
2023-01-02T21:53:42.329Z,47.08
2023-01-02T21:56:53.320Z,46.72
2023-01-02T21:59:56.019Z,47.13
2023-01-02T22:03:01.135Z,47.28
2023-01-02T22:06:03.389Z,47.55
2023-01-02T22:09:05.446Z,46.70
2023-01-02T22:12:08.046Z,45.50
2023-01-02T22:15:12.394Z,47.03
2023-01-02T22:18:14.551Z,45.03
2023-01-02T22:21:18.380Z,45.20
2023-01-02T22:24:23.729Z,46.83
2023-01-02T22:27:25.891Z,47.17
2023-01-02T22:30:34.457Z,47.65
2023-01-02T22:33:37.939Z,50.83
2023-01-02T22:36:40.268Z,50.35
2023-01-02T22:39:42.746Z,49.75
2023-01-02T22:43:03.238Z,52.30
2023-01-02T22:46:11.628Z,48.00
2023-01-02T22:49:22.887Z,49.97
2023-01-02T22:52:26.005Z,47.00
2023-01-02T22:55:28.321Z,46.78
2023-01-02T22:58:30.440Z,46.63
2023-01-02T23:01:45.296Z,49.40
2023-01-02T23:04:48.422Z,46.95
2023-01-02T23:07:50.713Z,45.17
2023-01-02T23:10:54.620Z,48.47
2023-01-02T23:13:57.300Z,45.95
2023-01-02T23:17:17.761Z,45.72
2023-01-02T23:20:19.893Z,48.72
2023-01-02T23:23:21.979Z,48.15
2023-01-02T23:26:30.192Z,48.30
2023-01-02T23:29:32.791Z,44.90
2023-01-02T23:32:35.291Z,47.05
2023-01-02T23:35:37.359Z,46.97
2023-01-02T23:38:39.323Z,44.13
2023-01-02T23:41:43.060Z,45.15
2023-01-02T23:44:44.996Z,43.33
2023-01-02T23:47:47.143Z,43.30
2023-01-02T23:51:02.879Z,42.38
2023-01-02T23:54:05.699Z,41.78
2023-01-02T23:57:07.791Z,40.40
